sensor_id;sensor_type;location;lat;lon;timestamp;pressure;altitude;pressure_sealevel;temperature;humidity
4024;BME280;2026;51.002;13.668;2023-03-23T00:04:34;98237.78;;;13.73;57.81
4024;BME280;2026;51.002;13.668;2023-03-23T00:09:37;98233.03;;;13.70;57.58
4024;BME280;2026;51.002;13.668;2023-03-23T00:14:41;98240.97;;;13.75;57.52
4024;BME280;2026;51.002;13.668;2023-03-23T00:19:43;98239.69;;;13.78;57.14
4024;BME280;2026;51.002;13.668;2023-03-23T00:24:49;98228.88;;;13.80;56.43
4024;BME280;2026;51.002;13.668;2023-03-23T00:29:51;98227.53;;;13.77;56.83
4024;BME280;2026;51.002;13.668;2023-03-23T00:34:55;98223.88;;;13.78;56.86
4024;BME280;2026;51.002;13.668;2023-03-23T00:40:00;98228.84;;;13.74;56.76
4024;BME280;2026;51.002;13.668;2023-03-23T00:45:07;98215.13;;;13.72;56.07
4024;BME280;2026;51.002;13.668;2023-03-23T00:50:11;98212.91;;;13.97;54.54
4024;BME280;2026;51.002;13.668;2023-03-23T00:55:14;98212.31;;;13.84;54.84
4024;BME280;2026;51.002;13.668;2023-03-23T01:00:17;98212.09;;;13.91;54.54
4024;BME280;2026;51.002;13.668;2023-03-23T01:05:20;98198.84;;;13.81;54.74
4024;BME280;2026;51.002;13.668;2023-03-23T01:10:23;98199.59;;;13.76;54.37
4024;BME280;2026;51.002;13.668;2023-03-23T01:15:27;98179.88;;;13.79;53.73
4024;BME280;2026;51.002;13.668;2023-03-23T01:20:30;98167.84;;;13.93;53.62
4024;BME280;2026;51.002;13.668;2023-03-23T01:25:35;98169.47;;;14.05;52.56
4024;BME280;2026;51.002;13.668;2023-03-23T01:30:38;98168.97;;;14.08;52.29
4024;BME280;2026;51.002;13.668;2023-03-23T01:35:40;98162.59;;;13.98;53.19
4024;BME280;2026;51.002;13.668;2023-03-23T01:40:44;98151.97;;;13.83;53.36
4024;BME280;2026;51.002;13.668;2023-03-23T01:45:48;98152.00;;;13.88;53.54
4024;BME280;2026;51.002;13.668;2023-03-23T01:50:54;98144.09;;;13.88;53.00
4024;BME280;2026;51.002;13.668;2023-03-23T01:55:59;98141.97;;;13.85;53.07
4024;BME280;2026;51.002;13.668;2023-03-23T02:01:06;98150.72;;;13.96;52.91
4024;BME280;2026;51.002;13.668;2023-03-23T02:06:12;98147.56;;;13.94;52.56
4024;BME280;2026;51.002;13.668;2023-03-23T02:11:34;98140.97;;;13.96;52.54
4024;BME280;2026;51.002;13.668;2023-03-23T02:16:41;98137.03;;;13.99;52.17
4024;BME280;2026;51.002;13.668;2023-03-23T02:22:10;98135.13;;;13.89;52.91
4024;BME280;2026;51.002;13.668;2023-03-23T02:27:33;98137.63;;;13.63;54.74
4024;BME280;2026;51.002;13.668;2023-03-23T02:38:16;98157.47;;;13.38;56.61
4024;BME280;2026;51.002;13.668;2023-03-23T02:43:22;98142.66;;;13.65;53.46
4024;BME280;2026;51.002;13.668;2023-03-23T02:48:28;98139.81;;;13.77;52.34
4024;BME280;2026;51.002;13.668;2023-03-23T02:53:35;98138.09;;;13.55;53.72
4024;BME280;2026;51.002;13.668;2023-03-23T02:58:38;98141.56;;;13.23;56.59
4024;BME280;2026;51.002;13.668;2023-03-23T03:03:41;98140.97;;;13.15;56.52
4024;BME280;2026;51.002;13.668;2023-03-23T03:08:48;98133.16;;;13.26;55.98
4024;BME280;2026;51.002;13.668;2023-03-23T03:13:57;98130.41;;;13.10;56.25
4024;BME280;2026;51.002;13.668;2023-03-23T03:19:03;98130.81;;;12.97;58.23
4024;BME280;2026;51.002;13.668;2023-03-23T03:24:10;98118.03;;;12.83;59.42
4024;BME280;2026;51.002;13.668;2023-03-23T03:29:13;98115.63;;;13.04;58.25
4024;BME280;2026;51.002;13.668;2023-03-23T03:34:21;98114.50;;;13.00;58.22
4024;BME280;2026;51.002;13.668;2023-03-23T03:39:27;98120.69;;;13.48;55.78
4024;BME280;2026;51.002;13.668;2023-03-23T03:44:29;98109.47;;;13.69;55.20
4024;BME280;2026;51.002;13.668;2023-03-23T03:49:31;98111.81;;;13.60;56.44
4024;BME280;2026;51.002;13.668;2023-03-23T03:54:34;98108.56;;;13.47;58.55
4024;BME280;2026;51.002;13.668;2023-03-23T03:59:37;98108.56;;;13.47;57.66
4024;BME280;2026;51.002;13.668;2023-03-23T04:04:57;98112.53;;;13.50;57.71
4024;BME280;2026;51.002;13.668;2023-03-23T04:10:08;98108.69;;;13.25;59.37
4024;BME280;2026;51.002;13.668;2023-03-23T04:15:11;98101.75;;;13.57;57.17
4024;BME280;2026;51.002;13.668;2023-03-23T04:20:14;98097.84;;;13.59;57.40
4024;BME280;2026;51.002;13.668;2023-03-23T04:25:23;98107.22;;;13.40;59.15
4024;BME280;2026;51.002;13.668;2023-03-23T04:30:28;98104.88;;;13.43;60.14
4024;BME280;2026;51.002;13.668;2023-03-23T04:35:37;98096.78;;;13.17;61.92
4024;BME280;2026;51.002;13.668;2023-03-23T04:41:01;98097.44;;;13.02;61.75
4024;BME280;2026;51.002;13.668;2023-03-23T04:46:33;98085.03;;;12.98;62.99
4024;BME280;2026;51.002;13.668;2023-03-23T04:51:41;98091.34;;;13.02;61.50
4024;BME280;2026;51.002;13.668;2023-03-23T04:56:53;98092.09;;;12.92;62.45
4024;BME280;2026;51.002;13.668;2023-03-23T05:01:55;98079.47;;;13.27;60.18
4024;BME280;2026;51.002;13.668;2023-03-23T05:06:58;98067.16;;;13.38;59.74
4024;BME280;2026;51.002;13.668;2023-03-23T05:12:07;98082.06;;;13.22;60.25
4024;BME280;2026;51.002;13.668;2023-03-23T05:17:16;98093.34;;;13.55;57.80
4024;BME280;2026;51.002;13.668;2023-03-23T05:22:22;98099.63;;;13.11;62.11
4024;BME280;2026;51.002;13.668;2023-03-23T05:27:27;98092.50;;;13.06;62.63
4024;BME280;2026;51.002;13.668;2023-03-23T05:32:35;98086.34;;;13.28;65.58
4024;BME280;2026;51.002;13.668;2023-03-23T05:37:54;98079.16;;;13.61;57.84
4024;BME280;2026;51.002;13.668;2023-03-23T05:42:58;98085.00;;;13.73;57.28
4024;BME280;2026;51.002;13.668;2023-03-23T05:48:12;98088.78;;;13.93;56.55
4024;BME280;2026;51.002;13.668;2023-03-23T05:53:14;98088.81;;;14.03;55.51
4024;BME280;2026;51.002;13.668;2023-03-23T05:58:19;98100.72;;;14.11;55.94
4024;BME280;2026;51.002;13.668;2023-03-23T06:03:22;98095.66;;;14.05;56.18
4024;BME280;2026;51.002;13.668;2023-03-23T06:08:33;98093.06;;;14.10;55.32
4024;BME280;2026;51.002;13.668;2023-03-23T06:13:39;98107.34;;;14.24;55.31
4024;BME280;2026;51.002;13.668;2023-03-23T06:18:44;98101.53;;;14.27;54.85
4024;BME280;2026;51.002;13.668;2023-03-23T06:23:51;98086.28;;;14.29;54.89
4024;BME280;2026;51.002;13.668;2023-03-23T06:28:56;98089.75;;;14.46;54.35
4024;BME280;2026;51.002;13.668;2023-03-23T06:34:00;98092.16;;;14.57;54.95
4024;BME280;2026;51.002;13.668;2023-03-23T06:39:22;98098.00;;;14.70;54.24
4024;BME280;2026;51.002;13.668;2023-03-23T06:44:36;98112.50;;;14.67;54.35
4024;BME280;2026;51.002;13.668;2023-03-23T06:49:38;98114.88;;;14.69;55.01
4024;BME280;2026;51.002;13.668;2023-03-23T06:54:49;98126.19;;;14.69;54.84
4024;BME280;2026;51.002;13.668;2023-03-23T06:59:55;98115.16;;;14.88;54.17
4024;BME280;2026;51.002;13.668;2023-03-23T07:04:58;98123.06;;;14.98;53.57
4024;BME280;2026;51.002;13.668;2023-03-23T07:10:01;98139.19;;;15.18;53.40
4024;BME280;2026;51.002;13.668;2023-03-23T07:15:06;98137.59;;;15.43;53.14
4024;BME280;2026;51.002;13.668;2023-03-23T07:20:12;98138.06;;;15.81;52.13
4024;BME280;2026;51.002;13.668;2023-03-23T07:25:16;98130.66;;;15.93;51.73
4024;BME280;2026;51.002;13.668;2023-03-23T07:30:26;98154.97;;;15.96;52.17
4024;BME280;2026;51.002;13.668;2023-03-23T07:35:30;98148.03;;;16.05;51.85
4024;BME280;2026;51.002;13.668;2023-03-23T07:40:58;98168.47;;;15.84;51.70
4024;BME280;2026;51.002;13.668;2023-03-23T07:46:01;98157.09;;;15.83;52.71
4024;BME280;2026;51.002;13.668;2023-03-23T07:51:29;98162.09;;;15.95;52.23
4024;BME280;2026;51.002;13.668;2023-03-23T07:56:31;98177.44;;;15.93;52.29
4024;BME280;2026;51.002;13.668;2023-03-23T08:01:46;98161.00;;;16.06;52.29
4024;BME280;2026;51.002;13.668;2023-03-23T08:07:08;98171.34;;;16.03;52.71
4024;BME280;2026;51.002;13.668;2023-03-23T08:12:37;98186.16;;;15.93;52.64
4024;BME280;2026;51.002;13.668;2023-03-23T08:17:59;98187.78;;;15.79;52.81
4024;BME280;2026;51.002;13.668;2023-03-23T08:23:21;98186.97;;;15.84;53.97
4024;BME280;2026;51.002;13.668;2023-03-23T08:28:43;98193.53;;;15.97;53.60
4024;BME280;2026;51.002;13.668;2023-03-23T08:34:06;98202.31;;;15.76;53.67
4024;BME280;2026;51.002;13.668;2023-03-23T08:39:40;98199.63;;;15.87;53.92
4024;BME280;2026;51.002;13.668;2023-03-23T08:44:46;98192.25;;;15.89;54.28
4024;BME280;2026;51.002;13.668;2023-03-23T08:50:13;98203.34;;;15.86;54.24
4024;BME280;2026;51.002;13.668;2023-03-23T08:55:45;98203.88;;;15.93;54.61
4024;BME280;2026;51.002;13.668;2023-03-23T09:00:46;98197.28;;;15.80;55.14
4024;BME280;2026;51.002;13.668;2023-03-23T09:06:22;98207.28;;;15.99;55.91
4024;BME280;2026;51.002;13.668;2023-03-23T09:11:24;98195.59;;;16.26;55.29
4024;BME280;2026;51.002;13.668;2023-03-23T09:16:25;98205.63;;;16.24;56.17
4024;BME280;2026;51.002;13.668;2023-03-23T09:21:29;98217.00;;;16.19;56.10
4024;BME280;2026;51.002;13.668;2023-03-23T09:26:31;98214.19;;;15.84;57.31
4024;BME280;2026;51.002;13.668;2023-03-23T09:31:33;98227.41;;;15.74;60.28
4024;BME280;2026;51.002;13.668;2023-03-23T09:36:38;98223.72;;;15.75;60.85
4024;BME280;2026;51.002;13.668;2023-03-23T09:41:57;98235.84;;;15.39;63.01
4024;BME280;2026;51.002;13.668;2023-03-23T09:47:06;98241.38;;;15.48;63.37
4024;BME280;2026;51.002;13.668;2023-03-23T09:52:13;98228.44;;;15.16;65.25
4024;BME280;2026;51.002;13.668;2023-03-23T09:57:21;98225.78;;;15.26;66.10
4024;BME280;2026;51.002;13.668;2023-03-23T10:02:27;98235.03;;;15.34;67.01
4024;BME280;2026;51.002;13.668;2023-03-23T10:07:32;98227.38;;;15.43;65.38
4024;BME280;2026;51.002;13.668;2023-03-23T10:12:42;98232.94;;;15.41;66.30
4024;BME280;2026;51.002;13.668;2023-03-23T10:17:52;98221.06;;;15.38;64.60
4024;BME280;2026;51.002;13.668;2023-03-23T10:23:02;98223.69;;;15.64;63.85
4024;BME280;2026;51.002;13.668;2023-03-23T10:28:10;98218.94;;;15.66;63.22
4024;BME280;2026;51.002;13.668;2023-03-23T10:33:17;98224.75;;;15.94;64.15
4024;BME280;2026;51.002;13.668;2023-03-23T10:38:24;98223.44;;;15.66;63.95
4024;BME280;2026;51.002;13.668;2023-03-23T10:43:29;98209.94;;;15.67;65.15
4024;BME280;2026;51.002;13.668;2023-03-23T10:48:35;98213.13;;;15.70;64.68
4024;BME280;2026;51.002;13.668;2023-03-23T10:53:44;98204.13;;;15.65;65.29
4024;BME280;2026;51.002;13.668;2023-03-23T10:58:47;98202.03;;;15.88;63.66
4024;BME280;2026;51.002;13.668;2023-03-23T11:03:49;98193.84;;;15.90;63.56
4024;BME280;2026;51.002;13.668;2023-03-23T11:08:56;98211.56;;;15.74;63.31
4024;BME280;2026;51.002;13.668;2023-03-23T11:14:00;98222.09;;;15.94;63.04
4024;BME280;2026;51.002;13.668;2023-03-23T11:19:12;98226.88;;;15.87;62.85
4024;BME280;2026;51.002;13.668;2023-03-23T11:24:16;98223.69;;;15.90;62.49
4024;BME280;2026;51.002;13.668;2023-03-23T11:29:19;98227.41;;;15.74;62.05
4024;BME280;2026;51.002;13.668;2023-03-23T11:34:25;98233.75;;;15.88;62.45
4024;BME280;2026;51.002;13.668;2023-03-23T11:39:30;98232.69;;;15.94;61.69
4024;BME280;2026;51.002;13.668;2023-03-23T11:44:35;98249.59;;;15.99;61.93
4024;BME280;2026;51.002;13.668;2023-03-23T11:49:47;98251.44;;;15.88;63.34
4024;BME280;2026;51.002;13.668;2023-03-23T11:54:56;98262.53;;;15.69;67.96
4024;BME280;2026;51.002;13.668;2023-03-23T12:00:12;98276.59;;;15.85;67.03
4024;BME280;2026;51.002;13.668;2023-03-23T12:05:30;98261.47;;;15.60;67.32
4024;BME280;2026;51.002;13.668;2023-03-23T12:10:40;98264.41;;;15.74;68.14
4024;BME280;2026;51.002;13.668;2023-03-23T12:15:48;98260.19;;;15.78;68.57
4024;BME280;2026;51.002;13.668;2023-03-23T12:21:00;98260.19;;;15.83;70.17
4024;BME280;2026;51.002;13.668;2023-03-23T12:26:14;98241.94;;;15.50;71.50
4024;BME280;2026;51.002;13.668;2023-03-23T12:31:24;98242.69;;;15.25;71.90
4024;BME280;2026;51.002;13.668;2023-03-23T12:36:36;98239.28;;;15.45;71.92
4024;BME280;2026;51.002;13.668;2023-03-23T12:41:47;98236.38;;;15.83;68.71
4024;BME280;2026;51.002;13.668;2023-03-23T12:47:02;98226.88;;;15.77;67.41
4024;BME280;2026;51.002;13.668;2023-03-23T12:52:11;98228.47;;;15.78;66.27
4024;BME280;2026;51.002;13.668;2023-03-23T12:57:21;98221.56;;;15.98;65.07
4024;BME280;2026;51.002;13.668;2023-03-23T13:02:30;98216.91;;;16.50;64.26
4024;BME280;2026;51.002;13.668;2023-03-23T13:07:35;98216.16;;;16.39;63.90
4024;BME280;2026;51.002;13.668;2023-03-23T13:12:41;98221.44;;;16.44;63.64
4024;BME280;2026;51.002;13.668;2023-03-23T13:17:47;98226.75;;;17.00;61.21
4024;BME280;2026;51.002;13.668;2023-03-23T13:22:53;98212.84;;;17.24;58.07
4024;BME280;2026;51.002;13.668;2023-03-23T13:27:59;98224.88;;;17.00;58.17
4024;BME280;2026;51.002;13.668;2023-03-23T13:33:03;98219.22;;;16.62;58.88
4024;BME280;2026;51.002;13.668;2023-03-23T13:38:12;98195.66;;;16.66;58.92
4024;BME280;2026;51.002;13.668;2023-03-23T13:43:30;98194.66;;;16.56;59.33
4024;BME280;2026;51.002;13.668;2023-03-23T13:48:40;98185.19;;;16.45;58.92
4024;BME280;2026;51.002;13.668;2023-03-23T13:53:45;98167.16;;;16.52;58.84
4024;BME280;2026;51.002;13.668;2023-03-23T13:58:50;98169.34;;;16.85;58.66
4024;BME280;2026;51.002;13.668;2023-03-23T14:03:53;98153.84;;;17.13;57.80
4024;BME280;2026;51.002;13.668;2023-03-23T14:09:04;98155.56;;;16.93;57.32
4024;BME280;2026;51.002;13.668;2023-03-23T14:14:15;98145.38;;;17.11;56.95
4024;BME280;2026;51.002;13.668;2023-03-23T14:19:24;98139.66;;;16.98;57.24
4024;BME280;2026;51.002;13.668;2023-03-23T14:24:27;98139.25;;;16.70;57.68
4024;BME280;2026;51.002;13.668;2023-03-23T14:29:31;98153.69;;;16.99;57.30
4024;BME280;2026;51.002;13.668;2023-03-23T14:34:34;98170.09;;;16.96;56.97
4024;BME280;2026;51.002;13.668;2023-03-23T14:39:36;98177.84;;;16.87;57.68
4024;BME280;2026;51.002;13.668;2023-03-23T14:44:42;98184.25;;;16.70;58.51
4024;BME280;2026;51.002;13.668;2023-03-23T14:49:45;98173.06;;;16.94;57.89
4024;BME280;2026;51.002;13.668;2023-03-23T14:54:47;98172.28;;;16.33;58.91
4024;BME280;2026;51.002;13.668;2023-03-23T14:59:51;98176.44;;;16.44;59.11
4024;BME280;2026;51.002;13.668;2023-03-23T15:05:04;98184.56;;;16.63;58.90
4024;BME280;2026;51.002;13.668;2023-03-23T15:10:09;98168.75;;;16.48;58.57
4024;BME280;2026;51.002;13.668;2023-03-23T15:15:20;98178.06;;;16.40;58.87
4024;BME280;2026;51.002;13.668;2023-03-23T15:20:25;98171.22;;;16.34;58.92
4024;BME280;2026;51.002;13.668;2023-03-23T15:25:31;98178.56;;;16.47;58.50
4024;BME280;2026;51.002;13.668;2023-03-23T15:30:36;98190.19;;;16.46;58.22
4024;BME280;2026;51.002;13.668;2023-03-23T15:35:41;98188.94;;;16.33;58.88
4024;BME280;2026;51.002;13.668;2023-03-23T15:40:49;98200.31;;;16.29;58.85
4024;BME280;2026;51.002;13.668;2023-03-23T15:45:57;98191.06;;;16.37;58.77
4024;BME280;2026;51.002;13.668;2023-03-23T15:51:04;98211.72;;;16.29;59.15
4024;BME280;2026;51.002;13.668;2023-03-23T15:56:09;98219.44;;;16.10;59.01
4024;BME280;2026;51.002;13.668;2023-03-23T16:01:15;98222.59;;;16.17;58.07
4024;BME280;2026;51.002;13.668;2023-03-23T16:06:20;98228.94;;;16.11;58.43
4024;BME280;2026;51.002;13.668;2023-03-23T16:11:27;98239.00;;;15.99;58.97
4024;BME280;2026;51.002;13.668;2023-03-23T16:16:35;98232.69;;;15.94;58.35
4024;BME280;2026;51.002;13.668;2023-03-23T16:21:39;98219.47;;;15.89;58.41
4024;BME280;2026;51.002;13.668;2023-03-23T16:26:42;98221.59;;;15.77;58.62
4024;BME280;2026;51.002;13.668;2023-03-23T16:31:46;98244.06;;;15.74;59.38
4024;BME280;2026;51.002;13.668;2023-03-23T16:36:50;98251.97;;;15.64;60.00
4024;BME280;2026;51.002;13.668;2023-03-23T16:41:53;98260.94;;;15.42;61.86
4024;BME280;2026;51.002;13.668;2023-03-23T16:46:57;98256.88;;;14.98;64.12
4024;BME280;2026;51.002;13.668;2023-03-23T16:52:00;98264.56;;;14.99;65.00
4024;BME280;2026;51.002;13.668;2023-03-23T16:57:03;98272.22;;;15.01;65.39
4024;BME280;2026;51.002;13.668;2023-03-23T17:02:09;98265.88;;;15.02;65.08
4024;BME280;2026;51.002;13.668;2023-03-23T17:07:13;98266.66;;;14.97;65.39
4024;BME280;2026;51.002;13.668;2023-03-23T17:12:16;98269.81;;;14.89;66.79
4024;BME280;2026;51.002;13.668;2023-03-23T17:17:22;98276.94;;;14.83;66.02
4024;BME280;2026;51.002;13.668;2023-03-23T17:22:25;98300.69;;;14.83;66.02
4024;BME280;2026;51.002;13.668;2023-03-23T17:27:28;98299.03;;;14.72;67.58
4024;BME280;2026;51.002;13.668;2023-03-23T17:32:32;98290.81;;;14.63;68.52
4024;BME280;2026;51.002;13.668;2023-03-23T17:37:37;98301.56;;;14.46;70.39
4024;BME280;2026;51.002;13.668;2023-03-23T17:42:40;98299.38;;;14.38;71.23
4024;BME280;2026;51.002;13.668;2023-03-23T17:47:44;98306.38;;;14.22;73.29
4024;BME280;2026;51.002;13.668;2023-03-23T17:52:47;98307.09;;;14.12;74.16
4024;BME280;2026;51.002;13.668;2023-03-23T17:57:51;98304.44;;;14.07;74.91
4024;BME280;2026;51.002;13.668;2023-03-23T18:02:55;98312.34;;;13.74;77.14
4024;BME280;2026;51.002;13.668;2023-03-23T18:07:58;98296.16;;;13.60;78.80
4024;BME280;2026;51.002;13.668;2023-03-23T18:13:01;98311.25;;;13.42;79.80
4024;BME280;2026;51.002;13.668;2023-03-23T18:18:05;98318.44;;;13.19;81.32
4024;BME280;2026;51.002;13.668;2023-03-23T18:23:08;98301.63;;;13.26;80.65
4024;BME280;2026;51.002;13.668;2023-03-23T18:28:11;98308.16;;;13.45;79.82
4024;BME280;2026;51.002;13.668;2023-03-23T18:33:17;98295.88;;;13.29;80.23
4024;BME280;2026;51.002;13.668;2023-03-23T18:38:21;98290.34;;;13.30;80.36
4024;BME280;2026;51.002;13.668;2023-03-23T18:43:23;98299.25;;;13.24;80.27
4024;BME280;2026;51.002;13.668;2023-03-23T18:48:28;98296.81;;;13.17;80.72
4024;BME280;2026;51.002;13.668;2023-03-23T18:53:31;98289.50;;;13.25;80.38
4024;BME280;2026;51.002;13.668;2023-03-23T18:58:34;98285.72;;;13.15;80.25
4024;BME280;2026;51.002;13.668;2023-03-23T19:03:39;98291.50;;;13.12;80.34
4024;BME280;2026;51.002;13.668;2023-03-23T19:08:42;98292.81;;;13.15;80.05
4024;BME280;2026;51.002;13.668;2023-03-23T19:13:47;98304.91;;;13.11;80.12
4024;BME280;2026;51.002;13.668;2023-03-23T19:19:04;98301.47;;;13.10;80.18
4024;BME280;2026;51.002;13.668;2023-03-23T19:24:08;98301.47;;;13.10;80.07
4024;BME280;2026;51.002;13.668;2023-03-23T19:29:13;98305.97;;;12.92;80.80
4024;BME280;2026;51.002;13.668;2023-03-23T19:34:21;98295.56;;;12.80;80.96
4024;BME280;2026;51.002;13.668;2023-03-23T19:39:25;98299.06;;;12.64;81.85
4024;BME280;2026;51.002;13.668;2023-03-23T19:44:28;98283.66;;;12.73;81.22
4024;BME280;2026;51.002;13.668;2023-03-23T19:49:32;98285.28;;;12.57;82.21
4024;BME280;2026;51.002;13.668;2023-03-23T19:54:35;98285.94;;;12.47;82.14
4024;BME280;2026;51.002;13.668;2023-03-23T19:59:39;98290.59;;;12.39;82.60
4024;BME280;2026;51.002;13.668;2023-03-23T20:04:44;98287.94;;;12.39;82.88
4024;BME280;2026;51.002;13.668;2023-03-23T20:09:47;98302.22;;;12.44;82.99
4024;BME280;2026;51.002;13.668;2023-03-23T20:14:50;98294.88;;;12.46;83.11
4024;BME280;2026;51.002;13.668;2023-03-23T20:19:55;98295.84;;;12.39;83.67
4024;BME280;2026;51.002;13.668;2023-03-23T20:24:58;98295.91;;;12.45;83.51
4024;BME280;2026;51.002;13.668;2023-03-23T20:30:03;98301.06;;;12.57;82.65
4024;BME280;2026;51.002;13.668;2023-03-23T20:35:09;98294.09;;;12.68;82.26
4024;BME280;2026;51.002;13.668;2023-03-23T20:40:13;98301.94;;;12.62;82.60
4024;BME280;2026;51.002;13.668;2023-03-23T20:45:16;98304.94;;;12.93;80.68
4024;BME280;2026;51.002;13.668;2023-03-23T20:50:22;98315.34;;;13.28;78.25
4024;BME280;2026;51.002;13.668;2023-03-23T20:55:25;98308.91;;;13.41;77.90
4024;BME280;2026;51.002;13.668;2023-03-23T21:00:28;98297.56;;;13.40;77.40
4024;BME280;2026;51.002;13.668;2023-03-23T21:05:32;98302.13;;;13.50;76.90
4024;BME280;2026;51.002;13.668;2023-03-23T21:10:36;98296.63;;;13.52;76.69
4024;BME280;2026;51.002;13.668;2023-03-23T21:15:40;98298.06;;;13.70;76.15
4024;BME280;2026;51.002;13.668;2023-03-23T21:20:45;98293.09;;;13.68;75.96
4024;BME280;2026;51.002;13.668;2023-03-23T21:25:48;98278.06;;;13.69;76.00
4024;BME280;2026;51.002;13.668;2023-03-23T21:30:51;98276.28;;;13.74;75.65
4024;BME280;2026;51.002;13.668;2023-03-23T21:35:56;98271.50;;;13.71;75.62
4024;BME280;2026;51.002;13.668;2023-03-23T21:41:06;98263.59;;;13.71;75.70
4024;BME280;2026;51.002;13.668;2023-03-23T21:46:10;98268.97;;;13.82;75.06
4024;BME280;2026;51.002;13.668;2023-03-23T21:51:18;98264.94;;;13.74;75.79
4024;BME280;2026;51.002;13.668;2023-03-23T21:56:24;98253.69;;;13.84;74.76
4024;BME280;2026;51.002;13.668;2023-03-23T22:01:28;98255.16;;;13.69;75.48
4024;BME280;2026;51.002;13.668;2023-03-23T22:06:32;98255.97;;;13.75;75.25
4024;BME280;2026;51.002;13.668;2023-03-23T22:11:37;98250.41;;;13.71;75.29
4024;BME280;2026;51.002;13.668;2023-03-23T22:16:40;98245.41;;;13.70;75.38
4024;BME280;2026;51.002;13.668;2023-03-23T22:21:45;98242.56;;;13.77;75.11
4024;BME280;2026;51.002;13.668;2023-03-23T22:26:48;98235.66;;;13.70;75.07
4024;BME280;2026;51.002;13.668;2023-03-23T22:31:51;98224.59;;;13.68;75.08
4024;BME280;2026;51.002;13.668;2023-03-23T22:36:55;98217.69;;;13.62;75.62
4024;BME280;2026;51.002;13.668;2023-03-23T22:41:59;98217.88;;;13.50;76.01
4024;BME280;2026;51.002;13.668;2023-03-23T22:47:02;98208.03;;;13.40;76.48
4024;BME280;2026;51.002;13.668;2023-03-23T22:52:06;98200.91;;;13.36;77.00
4024;BME280;2026;51.002;13.668;2023-03-23T22:57:09;98193.38;;;13.17;77.96
4024;BME280;2026;51.002;13.668;2023-03-23T23:02:12;98188.28;;;13.10;78.43
4024;BME280;2026;51.002;13.668;2023-03-23T23:07:16;98181.97;;;13.06;78.98
4024;BME280;2026;51.002;13.668;2023-03-23T23:12:19;98181.41;;;13.04;79.08
4024;BME280;2026;51.002;13.668;2023-03-23T23:17:23;98167.06;;;12.94;79.81
4024;BME280;2026;51.002;13.668;2023-03-23T23:22:28;98164.50;;;13.00;79.64
4024;BME280;2026;51.002;13.668;2023-03-23T23:27:32;98174.44;;;12.92;80.27
4024;BME280;2026;51.002;13.668;2023-03-23T23:32:35;98159.59;;;12.81;81.02
4024;BME280;2026;51.002;13.668;2023-03-23T23:37:40;98157.34;;;12.68;81.41
4024;BME280;2026;51.002;13.668;2023-03-23T23:42:44;98144.72;;;12.64;81.92
4024;BME280;2026;51.002;13.668;2023-03-23T23:47:47;98142.56;;;12.61;82.50
4024;BME280;2026;51.002;13.668;2023-03-23T23:52:52;98137.34;;;12.66;82.38
4024;BME280;2026;51.002;13.668;2023-03-23T23:57:55;98134.66;;;12.61;82.07
